sensor_id;sensor_type;location;lat;lon;timestamp;P1;durP1;ratioP1;P2;durP2;ratioP2
60975;SDS011;46849;48.154;17.042;2022-10-16T00:02:51;14.02;;;8.52;;
60975;SDS011;46849;48.154;17.042;2022-10-16T00:05:39;11.60;;;8.02;;
60975;SDS011;46849;48.154;17.042;2022-10-16T00:08:27;14.90;;;8.55;;
60975;SDS011;46849;48.154;17.042;2022-10-16T00:11:14;14.70;;;8.60;;
60975;SDS011;46849;48.154;17.042;2022-10-16T00:14:01;12.93;;;8.23;;
60975;SDS011;46849;48.154;17.042;2022-10-16T00:16:47;13.82;;;9.05;;
60975;SDS011;46849;48.154;17.042;2022-10-16T00:19:32;15.48;;;9.07;;
60975;SDS011;46849;48.154;17.042;2022-10-16T00:22:17;14.40;;;8.30;;
60975;SDS011;46849;48.154;17.042;2022-10-16T00:25:08;12.07;;;7.57;;
60975;SDS011;46849;48.154;17.042;2022-10-16T00:27:53;15.82;;;9.48;;
60975;SDS011;46849;48.154;17.042;2022-10-16T00:30:38;15.80;;;9.75;;
60975;SDS011;46849;48.154;17.042;2022-10-16T00:33:22;13.80;;;9.07;;
60975;SDS011;46849;48.154;17.042;2022-10-16T00:36:09;16.42;;;9.68;;
60975;SDS011;46849;48.154;17.042;2022-10-16T00:38:56;13.73;;;8.70;;
60975;SDS011;46849;48.154;17.042;2022-10-16T00:41:43;12.02;;;8.18;;
60975;SDS011;46849;48.154;17.042;2022-10-16T00:44:47;14.48;;;9.48;;
60975;SDS011;46849;48.154;17.042;2022-10-16T00:47:41;17.10;;;9.32;;
60975;SDS011;46849;48.154;17.042;2022-10-16T00:50:32;16.75;;;9.40;;
60975;SDS011;46849;48.154;17.042;2022-10-16T00:53:18;14.43;;;8.75;;
60975;SDS011;46849;48.154;17.042;2022-10-16T00:56:03;13.63;;;8.35;;
60975;SDS011;46849;48.154;17.042;2022-10-16T00:58:48;14.05;;;9.23;;
60975;SDS011;46849;48.154;17.042;2022-10-16T01:01:33;15.35;;;9.43;;
60975;SDS011;46849;48.154;17.042;2022-10-16T01:04:18;14.48;;;9.48;;
60975;SDS011;46849;48.154;17.042;2022-10-16T01:07:13;15.07;;;8.80;;
60975;SDS011;46849;48.154;17.042;2022-10-16T01:13:18;13.90;;;9.38;;
60975;SDS011;46849;48.154;17.042;2022-10-16T01:16:16;15.93;;;9.57;;
60975;SDS011;46849;48.154;17.042;2022-10-16T01:19:12;16.42;;;9.68;;
60975;SDS011;46849;48.154;17.042;2022-10-16T01:22:01;17.60;;;10.05;;
60975;SDS011;46849;48.154;17.042;2022-10-16T01:24:49;16.20;;;9.10;;
60975;SDS011;46849;48.154;17.042;2022-10-16T01:27:34;14.82;;;9.23;;
60975;SDS011;46849;48.154;17.042;2022-10-16T01:30:23;15.20;;;9.40;;
60975;SDS011;46849;48.154;17.042;2022-10-16T01:33:17;16.30;;;10.13;;
60975;SDS011;46849;48.154;17.042;2022-10-16T01:36:13;16.38;;;8.70;;
60975;SDS011;46849;48.154;17.042;2022-10-16T01:39:01;13.95;;;9.70;;
60975;SDS011;46849;48.154;17.042;2022-10-16T01:41:47;16.63;;;10.25;;
60975;SDS011;46849;48.154;17.042;2022-10-16T01:44:35;13.93;;;9.25;;
60975;SDS011;46849;48.154;17.042;2022-10-16T01:47:23;13.38;;;9.10;;
60975;SDS011;46849;48.154;17.042;2022-10-16T01:50:11;13.60;;;9.05;;
60975;SDS011;46849;48.154;17.042;2022-10-16T01:52:58;15.75;;;8.65;;
60975;SDS011;46849;48.154;17.042;2022-10-16T01:55:46;15.77;;;9.70;;
60975;SDS011;46849;48.154;17.042;2022-10-16T01:58:34;15.98;;;8.88;;
60975;SDS011;46849;48.154;17.042;2022-10-16T02:01:24;14.93;;;9.35;;
60975;SDS011;46849;48.154;17.042;2022-10-16T02:04:19;14.38;;;8.95;;
60975;SDS011;46849;48.154;17.042;2022-10-16T02:07:08;16.00;;;8.57;;
60975;SDS011;46849;48.154;17.042;2022-10-16T02:09:54;12.23;;;8.38;;
60975;SDS011;46849;48.154;17.042;2022-10-16T02:12:40;16.55;;;9.85;;
60975;SDS011;46849;48.154;17.042;2022-10-16T02:15:30;20.17;;;9.35;;
60975;SDS011;46849;48.154;17.042;2022-10-16T02:18:14;14.77;;;9.90;;
60975;SDS011;46849;48.154;17.042;2022-10-16T02:27:11;13.88;;;9.10;;
60975;SDS011;46849;48.154;17.042;2022-10-16T02:30:03;16.63;;;9.60;;
60975;SDS011;46849;48.154;17.042;2022-10-16T02:32:53;14.98;;;10.00;;
60975;SDS011;46849;48.154;17.042;2022-10-16T02:35:40;16.67;;;10.13;;
60975;SDS011;46849;48.154;17.042;2022-10-16T02:38:27;17.23;;;9.80;;
60975;SDS011;46849;48.154;17.042;2022-10-16T02:41:12;16.27;;;10.02;;
60975;SDS011;46849;48.154;17.042;2022-10-16T02:43:58;17.17;;;10.40;;
60975;SDS011;46849;48.154;17.042;2022-10-16T02:46:42;14.80;;;9.90;;
60975;SDS011;46849;48.154;17.042;2022-10-16T02:49:27;15.20;;;9.25;;
60975;SDS011;46849;48.154;17.042;2022-10-16T02:52:11;14.93;;;9.77;;
60975;SDS011;46849;48.154;17.042;2022-10-16T02:54:56;15.63;;;9.63;;
60975;SDS011;46849;48.154;17.042;2022-10-16T02:57:41;15.73;;;9.77;;
60975;SDS011;46849;48.154;17.042;2022-10-16T03:00:26;17.25;;;9.38;;
60975;SDS011;46849;48.154;17.042;2022-10-16T03:03:10;16.58;;;9.90;;
60975;SDS011;46849;48.154;17.042;2022-10-16T03:05:55;18.88;;;10.45;;
60975;SDS011;46849;48.154;17.042;2022-10-16T03:08:40;17.38;;;10.43;;
60975;SDS011;46849;48.154;17.042;2022-10-16T03:11:24;19.30;;;11.32;;
60975;SDS011;46849;48.154;17.042;2022-10-16T03:14:09;18.33;;;11.32;;
60975;SDS011;46849;48.154;17.042;2022-10-16T03:16:53;19.45;;;10.38;;
60975;SDS011;46849;48.154;17.042;2022-10-16T03:19:38;17.75;;;11.60;;
60975;SDS011;46849;48.154;17.042;2022-10-16T03:22:22;18.33;;;11.55;;
60975;SDS011;46849;48.154;17.042;2022-10-16T03:25:07;17.38;;;12.55;;
60975;SDS011;46849;48.154;17.042;2022-10-16T03:27:53;20.48;;;12.50;;
60975;SDS011;46849;48.154;17.042;2022-10-16T03:30:37;19.33;;;12.80;;
60975;SDS011;46849;48.154;17.042;2022-10-16T03:33:24;21.48;;;12.52;;
60975;SDS011;46849;48.154;17.042;2022-10-16T03:36:10;18.92;;;12.23;;
60975;SDS011;46849;48.154;17.042;2022-10-16T03:38:55;21.17;;;11.75;;
60975;SDS011;46849;48.154;17.042;2022-10-16T03:41:40;18.17;;;11.57;;
60975;SDS011;46849;48.154;17.042;2022-10-16T03:44:24;16.98;;;11.18;;
60975;SDS011;46849;48.154;17.042;2022-10-16T03:47:09;18.83;;;10.82;;
60975;SDS011;46849;48.154;17.042;2022-10-16T03:49:53;15.95;;;10.38;;
60975;SDS011;46849;48.154;17.042;2022-10-16T03:52:38;16.67;;;10.27;;
60975;SDS011;46849;48.154;17.042;2022-10-16T03:55:22;18.30;;;10.43;;
60975;SDS011;46849;48.154;17.042;2022-10-16T03:58:07;14.93;;;9.63;;
60975;SDS011;46849;48.154;17.042;2022-10-16T04:00:51;14.60;;;10.00;;
60975;SDS011;46849;48.154;17.042;2022-10-16T04:03:36;17.92;;;11.00;;
60975;SDS011;46849;48.154;17.042;2022-10-16T04:06:21;19.20;;;11.05;;
60975;SDS011;46849;48.154;17.042;2022-10-16T04:09:05;21.05;;;12.27;;
60975;SDS011;46849;48.154;17.042;2022-10-16T04:11:50;20.13;;;12.82;;
60975;SDS011;46849;48.154;17.042;2022-10-16T04:14:35;20.80;;;12.63;;
60975;SDS011;46849;48.154;17.042;2022-10-16T04:17:19;23.08;;;11.25;;
60975;SDS011;46849;48.154;17.042;2022-10-16T04:20:04;21.02;;;13.18;;
60975;SDS011;46849;48.154;17.042;2022-10-16T04:22:49;20.20;;;13.70;;
60975;SDS011;46849;48.154;17.042;2022-10-16T04:25:34;20.48;;;12.38;;
60975;SDS011;46849;48.154;17.042;2022-10-16T04:28:19;20.20;;;12.88;;
60975;SDS011;46849;48.154;17.042;2022-10-16T04:31:04;16.90;;;11.68;;
60975;SDS011;46849;48.154;17.042;2022-10-16T04:33:49;18.70;;;11.40;;
60975;SDS011;46849;48.154;17.042;2022-10-16T04:36:34;17.75;;;11.07;;
60975;SDS011;46849;48.154;17.042;2022-10-16T04:39:18;20.08;;;11.77;;
60975;SDS011;46849;48.154;17.042;2022-10-16T04:42:04;19.45;;;12.63;;
60975;SDS011;46849;48.154;17.042;2022-10-16T04:44:49;18.08;;;12.27;;
60975;SDS011;46849;48.154;17.042;2022-10-16T04:47:33;19.85;;;13.13;;
60975;SDS011;46849;48.154;17.042;2022-10-16T04:50:17;20.05;;;12.82;;
60975;SDS011;46849;48.154;17.042;2022-10-16T04:53:19;21.85;;;12.20;;
60975;SDS011;46849;48.154;17.042;2022-10-16T04:56:05;20.40;;;12.55;;
60975;SDS011;46849;48.154;17.042;2022-10-16T04:58:50;20.80;;;13.43;;
60975;SDS011;46849;48.154;17.042;2022-10-16T05:01:35;20.20;;;12.63;;
60975;SDS011;46849;48.154;17.042;2022-10-16T05:04:20;20.65;;;13.20;;
60975;SDS011;46849;48.154;17.042;2022-10-16T05:07:04;19.38;;;12.68;;
60975;SDS011;46849;48.154;17.042;2022-10-16T05:09:48;19.85;;;12.38;;
60975;SDS011;46849;48.154;17.042;2022-10-16T05:12:33;19.10;;;11.70;;
60975;SDS011;46849;48.154;17.042;2022-10-16T05:15:22;21.77;;;12.65;;
60975;SDS011;46849;48.154;17.042;2022-10-16T05:18:09;19.30;;;12.00;;
60975;SDS011;46849;48.154;17.042;2022-10-16T05:20:56;20.15;;;12.18;;
60975;SDS011;46849;48.154;17.042;2022-10-16T05:23:41;21.90;;;12.45;;
60975;SDS011;46849;48.154;17.042;2022-10-16T05:26:25;21.67;;;12.52;;
60975;SDS011;46849;48.154;17.042;2022-10-16T05:29:10;18.02;;;12.10;;
60975;SDS011;46849;48.154;17.042;2022-10-16T05:31:58;19.75;;;12.30;;
60975;SDS011;46849;48.154;17.042;2022-10-16T05:34:42;20.23;;;11.73;;
60975;SDS011;46849;48.154;17.042;2022-10-16T05:37:28;24.70;;;13.55;;
60975;SDS011;46849;48.154;17.042;2022-10-16T05:40:13;20.85;;;13.07;;
60975;SDS011;46849;48.154;17.042;2022-10-16T05:43:01;16.38;;;11.20;;
60975;SDS011;46849;48.154;17.042;2022-10-16T05:45:53;21.27;;;12.02;;
60975;SDS011;46849;48.154;17.042;2022-10-16T05:48:47;20.02;;;10.90;;
60975;SDS011;46849;48.154;17.042;2022-10-16T05:51:32;18.77;;;11.48;;
60975;SDS011;46849;48.154;17.042;2022-10-16T05:54:17;15.93;;;9.85;;
60975;SDS011;46849;48.154;17.042;2022-10-16T05:57:01;19.42;;;10.88;;
60975;SDS011;46849;48.154;17.042;2022-10-16T05:59:49;19.80;;;11.43;;
60975;SDS011;46849;48.154;17.042;2022-10-16T06:02:34;17.55;;;11.15;;
60975;SDS011;46849;48.154;17.042;2022-10-16T06:05:18;17.58;;;10.23;;
60975;SDS011;46849;48.154;17.042;2022-10-16T06:08:03;15.90;;;10.40;;
60975;SDS011;46849;48.154;17.042;2022-10-16T06:10:48;16.00;;;10.57;;
60975;SDS011;46849;48.154;17.042;2022-10-16T06:13:33;15.43;;;10.10;;
60975;SDS011;46849;48.154;17.042;2022-10-16T06:16:18;16.33;;;9.07;;
60975;SDS011;46849;48.154;17.042;2022-10-16T06:19:03;17.60;;;10.02;;
60975;SDS011;46849;48.154;17.042;2022-10-16T06:21:50;14.40;;;9.35;;
60975;SDS011;46849;48.154;17.042;2022-10-16T06:24:34;18.40;;;9.75;;
60975;SDS011;46849;48.154;17.042;2022-10-16T06:27:19;16.98;;;10.57;;
60975;SDS011;46849;48.154;17.042;2022-10-16T06:30:03;17.67;;;10.15;;
60975;SDS011;46849;48.154;17.042;2022-10-16T06:32:49;15.13;;;9.32;;
60975;SDS011;46849;48.154;17.042;2022-10-16T06:35:33;15.43;;;9.13;;
60975;SDS011;46849;48.154;17.042;2022-10-16T06:38:17;15.60;;;9.50;;
60975;SDS011;46849;48.154;17.042;2022-10-16T06:41:03;13.65;;;9.13;;
60975;SDS011;46849;48.154;17.042;2022-10-16T06:43:48;15.30;;;9.82;;
60975;SDS011;46849;48.154;17.042;2022-10-16T06:46:33;14.68;;;9.80;;
60975;SDS011;46849;48.154;17.042;2022-10-16T06:49:18;18.40;;;9.38;;
60975;SDS011;46849;48.154;17.042;2022-10-16T06:52:06;13.65;;;9.18;;
60975;SDS011;46849;48.154;17.042;2022-10-16T06:54:51;12.88;;;8.80;;
60975;SDS011;46849;48.154;17.042;2022-10-16T06:57:35;14.57;;;9.75;;
60975;SDS011;46849;48.154;17.042;2022-10-16T07:00:20;17.00;;;9.32;;
60975;SDS011;46849;48.154;17.042;2022-10-16T07:03:05;14.63;;;10.20;;
60975;SDS011;46849;48.154;17.042;2022-10-16T07:05:50;13.35;;;8.40;;
60975;SDS011;46849;48.154;17.042;2022-10-16T07:08:35;15.77;;;9.15;;
60975;SDS011;46849;48.154;17.042;2022-10-16T07:11:22;15.25;;;8.50;;
60975;SDS011;46849;48.154;17.042;2022-10-16T07:14:18;12.45;;;8.18;;
60975;SDS011;46849;48.154;17.042;2022-10-16T07:17:04;13.55;;;8.05;;
60975;SDS011;46849;48.154;17.042;2022-10-16T07:19:50;12.00;;;8.02;;
60975;SDS011;46849;48.154;17.042;2022-10-16T07:22:37;12.15;;;7.60;;
60975;SDS011;46849;48.154;17.042;2022-10-16T07:25:21;15.65;;;8.10;;
60975;SDS011;46849;48.154;17.042;2022-10-16T07:28:06;13.85;;;7.65;;
60975;SDS011;46849;48.154;17.042;2022-10-16T07:30:51;12.30;;;7.70;;
60975;SDS011;46849;48.154;17.042;2022-10-16T07:33:35;14.23;;;7.70;;
60975;SDS011;46849;48.154;17.042;2022-10-16T07:36:20;12.80;;;7.57;;
60975;SDS011;46849;48.154;17.042;2022-10-16T07:39:05;12.38;;;8.43;;
60975;SDS011;46849;48.154;17.042;2022-10-16T07:41:51;12.27;;;6.97;;
60975;SDS011;46849;48.154;17.042;2022-10-16T07:44:36;10.52;;;6.88;;
60975;SDS011;46849;48.154;17.042;2022-10-16T07:47:20;13.02;;;7.50;;
60975;SDS011;46849;48.154;17.042;2022-10-16T07:50:05;22.25;;;8.07;;
60975;SDS011;46849;48.154;17.042;2022-10-16T07:52:50;13.00;;;8.18;;
60975;SDS011;46849;48.154;17.042;2022-10-16T07:55:37;12.85;;;7.20;;
60975;SDS011;46849;48.154;17.042;2022-10-16T07:58:22;11.98;;;8.02;;
60975;SDS011;46849;48.154;17.042;2022-10-16T08:01:07;13.50;;;7.22;;
60975;SDS011;46849;48.154;17.042;2022-10-16T08:03:53;15.70;;;8.15;;
60975;SDS011;46849;48.154;17.042;2022-10-16T08:06:39;13.65;;;7.88;;
60975;SDS011;46849;48.154;17.042;2022-10-16T08:09:25;11.27;;;6.88;;
60975;SDS011;46849;48.154;17.042;2022-10-16T08:12:09;12.95;;;7.18;;
60975;SDS011;46849;48.154;17.042;2022-10-16T08:14:54;12.98;;;7.70;;
60975;SDS011;46849;48.154;17.042;2022-10-16T08:17:39;10.38;;;6.82;;
60975;SDS011;46849;48.154;17.042;2022-10-16T08:20:24;11.38;;;7.97;;
60975;SDS011;46849;48.154;17.042;2022-10-16T08:23:10;10.82;;;7.13;;
60975;SDS011;46849;48.154;17.042;2022-10-16T08:26:01;12.30;;;7.40;;
60975;SDS011;46849;48.154;17.042;2022-10-16T08:28:49;13.70;;;7.32;;
60975;SDS011;46849;48.154;17.042;2022-10-16T08:31:35;13.63;;;8.15;;
60975;SDS011;46849;48.154;17.042;2022-10-16T08:34:20;14.82;;;8.35;;
60975;SDS011;46849;48.154;17.042;2022-10-16T08:37:04;12.57;;;8.43;;
60975;SDS011;46849;48.154;17.042;2022-10-16T08:39:50;12.93;;;8.40;;
60975;SDS011;46849;48.154;17.042;2022-10-16T08:48:35;13.63;;;7.15;;
60975;SDS011;46849;48.154;17.042;2022-10-16T08:51:39;14.80;;;8.93;;
60975;SDS011;46849;48.154;17.042;2022-10-16T08:54:29;13.63;;;8.55;;
60975;SDS011;46849;48.154;17.042;2022-10-16T08:57:21;13.70;;;8.52;;
60975;SDS011;46849;48.154;17.042;2022-10-16T09:00:12;17.00;;;9.05;;
60975;SDS011;46849;48.154;17.042;2022-10-16T09:03:10;16.05;;;8.93;;
60975;SDS011;46849;48.154;17.042;2022-10-16T09:09:41;14.57;;;9.52;;
60975;SDS011;46849;48.154;17.042;2022-10-16T09:12:48;16.15;;;9.38;;
60975;SDS011;46849;48.154;17.042;2022-10-16T09:18:44;16.98;;;9.20;;
60975;SDS011;46849;48.154;17.042;2022-10-16T09:21:34;16.48;;;9.05;;
60975;SDS011;46849;48.154;17.042;2022-10-16T09:24:24;16.77;;;9.50;;
60975;SDS011;46849;48.154;17.042;2022-10-16T09:27:10;16.67;;;9.80;;
60975;SDS011;46849;48.154;17.042;2022-10-16T09:29:56;19.25;;;10.27;;
60975;SDS011;46849;48.154;17.042;2022-10-16T09:32:41;14.82;;;8.93;;
60975;SDS011;46849;48.154;17.042;2022-10-16T09:38:25;15.75;;;9.02;;
60975;SDS011;46849;48.154;17.042;2022-10-16T09:41:17;16.25;;;10.23;;
60975;SDS011;46849;48.154;17.042;2022-10-16T09:44:06;13.82;;;8.35;;
60975;SDS011;46849;48.154;17.042;2022-10-16T09:47:31;14.30;;;8.90;;
60975;SDS011;46849;48.154;17.042;2022-10-16T09:50:20;17.38;;;9.98;;
60975;SDS011;46849;48.154;17.042;2022-10-16T09:53:12;16.90;;;9.63;;
60975;SDS011;46849;48.154;17.042;2022-10-16T09:55:58;16.85;;;9.82;;
60975;SDS011;46849;48.154;17.042;2022-10-16T09:58:49;15.88;;;9.43;;
60975;SDS011;46849;48.154;17.042;2022-10-16T10:01:36;16.63;;;10.10;;
60975;SDS011;46849;48.154;17.042;2022-10-16T10:04:24;16.73;;;9.68;;
60975;SDS011;46849;48.154;17.042;2022-10-16T10:07:20;20.85;;;11.25;;
60975;SDS011;46849;48.154;17.042;2022-10-16T10:10:22;15.57;;;9.52;;
60975;SDS011;46849;48.154;17.042;2022-10-16T10:13:21;20.67;;;11.48;;
60975;SDS011;46849;48.154;17.042;2022-10-16T10:16:08;19.77;;;11.35;;
60975;SDS011;46849;48.154;17.042;2022-10-16T10:18:59;16.63;;;8.90;;
60975;SDS011;46849;48.154;17.042;2022-10-16T10:21:44;15.98;;;9.80;;
60975;SDS011;46849;48.154;17.042;2022-10-16T10:24:29;18.63;;;10.82;;
60975;SDS011;46849;48.154;17.042;2022-10-16T10:27:15;17.77;;;9.00;;
60975;SDS011;46849;48.154;17.042;2022-10-16T10:30:24;15.93;;;10.10;;
60975;SDS011;46849;48.154;17.042;2022-10-16T10:39:25;14.63;;;9.25;;
60975;SDS011;46849;48.154;17.042;2022-10-16T10:48:24;17.20;;;10.60;;
60975;SDS011;46849;48.154;17.042;2022-10-16T10:51:16;16.40;;;10.90;;
60975;SDS011;46849;48.154;17.042;2022-10-16T10:57:09;12.90;;;8.52;;
60975;SDS011;46849;48.154;17.042;2022-10-16T11:00:19;19.20;;;12.25;;
60975;SDS011;46849;48.154;17.042;2022-10-16T11:06:49;17.63;;;10.88;;
60975;SDS011;46849;48.154;17.042;2022-10-16T11:10:26;17.70;;;11.10;;
60975;SDS011;46849;48.154;17.042;2022-10-16T11:14:17;15.52;;;10.50;;
60975;SDS011;46849;48.154;17.042;2022-10-16T11:16:45;21.55;;;12.40;;
60975;SDS011;46849;48.154;17.042;2022-10-16T11:19:39;21.48;;;14.35;;
60975;SDS011;46849;48.154;17.042;2022-10-16T11:22:31;17.40;;;10.80;;
60975;SDS011;46849;48.154;17.042;2022-10-16T11:25:29;21.08;;;12.27;;
60975;SDS011;46849;48.154;17.042;2022-10-16T11:28:19;18.77;;;12.07;;
60975;SDS011;46849;48.154;17.042;2022-10-16T11:31:52;20.95;;;10.85;;
60975;SDS011;46849;48.154;17.042;2022-10-16T11:37:41;21.30;;;12.35;;
60975;SDS011;46849;48.154;17.042;2022-10-16T11:40:29;13.38;;;9.50;;
60975;SDS011;46849;48.154;17.042;2022-10-16T11:46:10;18.73;;;11.75;;
60975;SDS011;46849;48.154;17.042;2022-10-16T11:54:59;18.30;;;11.15;;
60975;SDS011;46849;48.154;17.042;2022-10-16T11:58:00;19.70;;;12.15;;
60975;SDS011;46849;48.154;17.042;2022-10-16T12:04:14;18.65;;;11.20;;
60975;SDS011;46849;48.154;17.042;2022-10-16T12:07:18;14.73;;;10.73;;
60975;SDS011;46849;48.154;17.042;2022-10-16T12:10:25;19.92;;;12.45;;
60975;SDS011;46849;48.154;17.042;2022-10-16T12:19:14;16.70;;;10.20;;
60975;SDS011;46849;48.154;17.042;2022-10-16T12:22:01;18.47;;;12.20;;
60975;SDS011;46849;48.154;17.042;2022-10-16T12:24:50;17.67;;;12.00;;
60975;SDS011;46849;48.154;17.042;2022-10-16T12:27:35;17.95;;;11.15;;
60975;SDS011;46849;48.154;17.042;2022-10-16T12:30:22;17.02;;;10.20;;
60975;SDS011;46849;48.154;17.042;2022-10-16T12:33:20;17.00;;;10.45;;
60975;SDS011;46849;48.154;17.042;2022-10-16T12:36:14;15.75;;;11.38;;
60975;SDS011;46849;48.154;17.042;2022-10-16T12:39:16;19.70;;;11.93;;
60975;SDS011;46849;48.154;17.042;2022-10-16T12:45:31;14.23;;;9.40;;
60975;SDS011;46849;48.154;17.042;2022-10-16T12:48:21;15.45;;;10.25;;
60975;SDS011;46849;48.154;17.042;2022-10-16T12:51:25;16.45;;;10.27;;
60975;SDS011;46849;48.154;17.042;2022-10-16T12:54:37;14.82;;;10.70;;
60975;SDS011;46849;48.154;17.042;2022-10-16T13:00:26;16.10;;;10.35;;
60975;SDS011;46849;48.154;17.042;2022-10-16T13:09:23;17.27;;;10.23;;
60975;SDS011;46849;48.154;17.042;2022-10-16T13:27:07;15.65;;;10.30;;
60975;SDS011;46849;48.154;17.042;2022-10-16T13:30:00;14.73;;;9.88;;
60975;SDS011;46849;48.154;17.042;2022-10-16T13:33:01;12.73;;;8.95;;
60975;SDS011;46849;48.154;17.042;2022-10-16T13:35:49;14.60;;;9.30;;
60975;SDS011;46849;48.154;17.042;2022-10-16T13:38:38;18.38;;;10.68;;
60975;SDS011;46849;48.154;17.042;2022-10-16T13:41:22;16.33;;;10.25;;
60975;SDS011;46849;48.154;17.042;2022-10-16T13:44:11;18.48;;;10.80;;
60975;SDS011;46849;48.154;17.042;2022-10-16T13:47:00;15.98;;;10.55;;
60975;SDS011;46849;48.154;17.042;2022-10-16T13:49:45;14.73;;;10.10;;
60975;SDS011;46849;48.154;17.042;2022-10-16T13:52:31;17.15;;;11.13;;
60975;SDS011;46849;48.154;17.042;2022-10-16T13:55:17;13.07;;;8.95;;
60975;SDS011;46849;48.154;17.042;2022-10-16T13:58:13;14.90;;;10.20;;
60975;SDS011;46849;48.154;17.042;2022-10-16T14:00:59;15.75;;;9.55;;
60975;SDS011;46849;48.154;17.042;2022-10-16T14:03:46;16.17;;;9.68;;
60975;SDS011;46849;48.154;17.042;2022-10-16T14:06:32;14.05;;;8.40;;
60975;SDS011;46849;48.154;17.042;2022-10-16T14:09:27;14.20;;;9.18;;
60975;SDS011;46849;48.154;17.042;2022-10-16T14:12:13;15.65;;;9.55;;
60975;SDS011;46849;48.154;17.042;2022-10-16T14:14:59;14.98;;;9.73;;
60975;SDS011;46849;48.154;17.042;2022-10-16T14:17:45;21.08;;;10.20;;
60975;SDS011;46849;48.154;17.042;2022-10-16T14:20:34;15.77;;;9.77;;
60975;SDS011;46849;48.154;17.042;2022-10-16T14:23:29;15.02;;;10.52;;
60975;SDS011;46849;48.154;17.042;2022-10-16T14:26:16;14.95;;;8.88;;
60975;SDS011;46849;48.154;17.042;2022-10-16T14:29:04;15.68;;;9.38;;
60975;SDS011;46849;48.154;17.042;2022-10-16T14:31:57;14.73;;;9.07;;
60975;SDS011;46849;48.154;17.042;2022-10-16T14:34:52;16.13;;;9.98;;
60975;SDS011;46849;48.154;17.042;2022-10-16T14:37:38;15.75;;;9.48;;
60975;SDS011;46849;48.154;17.042;2022-10-16T14:40:24;15.95;;;10.77;;
60975;SDS011;46849;48.154;17.042;2022-10-16T14:43:14;14.23;;;8.93;;
60975;SDS011;46849;48.154;17.042;2022-10-16T14:46:17;12.85;;;8.52;;
60975;SDS011;46849;48.154;17.042;2022-10-16T14:49:14;14.50;;;8.50;;
60975;SDS011;46849;48.154;17.042;2022-10-16T14:52:01;13.60;;;8.70;;
60975;SDS011;46849;48.154;17.042;2022-10-16T14:54:49;17.65;;;9.60;;
60975;SDS011;46849;48.154;17.042;2022-10-16T14:57:35;16.27;;;9.60;;
60975;SDS011;46849;48.154;17.042;2022-10-16T15:00:22;14.50;;;9.65;;
60975;SDS011;46849;48.154;17.042;2022-10-16T15:03:08;12.93;;;7.97;;
60975;SDS011;46849;48.154;17.042;2022-10-16T15:05:52;14.68;;;9.32;;
60975;SDS011;46849;48.154;17.042;2022-10-16T15:08:37;14.45;;;9.32;;
60975;SDS011;46849;48.154;17.042;2022-10-16T15:11:23;14.20;;;9.07;;
60975;SDS011;46849;48.154;17.042;2022-10-16T15:14:09;15.68;;;9.80;;
60975;SDS011;46849;48.154;17.042;2022-10-16T15:16:59;16.83;;;9.68;;
60975;SDS011;46849;48.154;17.042;2022-10-16T15:19:44;13.50;;;9.43;;
60975;SDS011;46849;48.154;17.042;2022-10-16T15:22:28;15.20;;;8.88;;
60975;SDS011;46849;48.154;17.042;2022-10-16T15:28:25;14.95;;;8.90;;
60975;SDS011;46849;48.154;17.042;2022-10-16T15:31:18;15.65;;;9.07;;
60975;SDS011;46849;48.154;17.042;2022-10-16T15:34:03;14.38;;;9.23;;
60975;SDS011;46849;48.154;17.042;2022-10-16T15:36:51;19.90;;;9.45;;
60975;SDS011;46849;48.154;17.042;2022-10-16T15:39:36;14.70;;;9.70;;
60975;SDS011;46849;48.154;17.042;2022-10-16T15:42:21;15.40;;;10.10;;
60975;SDS011;46849;48.154;17.042;2022-10-16T15:45:05;18.77;;;9.82;;
60975;SDS011;46849;48.154;17.042;2022-10-16T15:47:50;15.23;;;9.77;;
60975;SDS011;46849;48.154;17.042;2022-10-16T15:50:35;14.50;;;9.63;;
60975;SDS011;46849;48.154;17.042;2022-10-16T15:53:22;15.02;;;9.60;;
60975;SDS011;46849;48.154;17.042;2022-10-16T15:56:09;18.08;;;10.30;;
60975;SDS011;46849;48.154;17.042;2022-10-16T15:59:07;15.68;;;9.48;;
60975;SDS011;46849;48.154;17.042;2022-10-16T16:01:52;14.75;;;9.00;;
60975;SDS011;46849;48.154;17.042;2022-10-16T16:04:37;15.57;;;8.95;;
60975;SDS011;46849;48.154;17.042;2022-10-16T16:07:22;13.10;;;8.50;;
60975;SDS011;46849;48.154;17.042;2022-10-16T16:10:08;13.88;;;8.68;;
60975;SDS011;46849;48.154;17.042;2022-10-16T16:12:53;15.45;;;9.52;;
60975;SDS011;46849;48.154;17.042;2022-10-16T16:15:39;14.90;;;9.48;;
60975;SDS011;46849;48.154;17.042;2022-10-16T16:18:25;13.10;;;8.38;;
60975;SDS011;46849;48.154;17.042;2022-10-16T16:21:11;13.90;;;8.40;;
60975;SDS011;46849;48.154;17.042;2022-10-16T16:23:56;17.42;;;8.23;;
60975;SDS011;46849;48.154;17.042;2022-10-16T16:26:41;14.82;;;8.45;;
60975;SDS011;46849;48.154;17.042;2022-10-16T16:29:27;13.35;;;7.90;;
60975;SDS011;46849;48.154;17.042;2022-10-16T16:32:12;14.95;;;8.18;;
60975;SDS011;46849;48.154;17.042;2022-10-16T16:34:56;15.48;;;9.00;;
60975;SDS011;46849;48.154;17.042;2022-10-16T16:37:41;16.35;;;9.18;;
60975;SDS011;46849;48.154;17.042;2022-10-16T16:40:26;14.57;;;8.63;;
60975;SDS011;46849;48.154;17.042;2022-10-16T16:43:11;13.73;;;8.88;;
60975;SDS011;46849;48.154;17.042;2022-10-16T16:45:56;12.93;;;8.02;;
60975;SDS011;46849;48.154;17.042;2022-10-16T16:48:46;15.63;;;8.98;;
60975;SDS011;46849;48.154;17.042;2022-10-16T16:51:34;14.32;;;8.55;;
60975;SDS011;46849;48.154;17.042;2022-10-16T16:54:18;13.05;;;8.23;;
60975;SDS011;46849;48.154;17.042;2022-10-16T16:57:03;15.30;;;8.25;;
60975;SDS011;46849;48.154;17.042;2022-10-16T16:59:49;14.27;;;8.63;;
60975;SDS011;46849;48.154;17.042;2022-10-16T17:02:35;12.50;;;8.43;;
60975;SDS011;46849;48.154;17.042;2022-10-16T17:05:20;13.27;;;8.40;;
60975;SDS011;46849;48.154;17.042;2022-10-16T17:08:07;12.60;;;8.45;;
60975;SDS011;46849;48.154;17.042;2022-10-16T17:10:52;14.20;;;8.13;;
60975;SDS011;46849;48.154;17.042;2022-10-16T17:13:39;12.95;;;8.38;;
60975;SDS011;46849;48.154;17.042;2022-10-16T17:16:25;13.07;;;8.60;;
60975;SDS011;46849;48.154;17.042;2022-10-16T17:19:16;14.75;;;8.98;;
60975;SDS011;46849;48.154;17.042;2022-10-16T17:22:01;15.40;;;8.80;;
60975;SDS011;46849;48.154;17.042;2022-10-16T17:24:47;17.08;;;8.63;;
60975;SDS011;46849;48.154;17.042;2022-10-16T17:27:36;14.55;;;8.23;;
60975;SDS011;46849;48.154;17.042;2022-10-16T17:30:22;15.95;;;9.07;;
60975;SDS011;46849;48.154;17.042;2022-10-16T17:33:08;14.07;;;8.77;;
60975;SDS011;46849;48.154;17.042;2022-10-16T17:35:54;13.00;;;8.23;;
60975;SDS011;46849;48.154;17.042;2022-10-16T17:38:39;14.02;;;8.70;;
60975;SDS011;46849;48.154;17.042;2022-10-16T17:41:24;17.00;;;9.02;;
60975;SDS011;46849;48.154;17.042;2022-10-16T17:44:09;18.67;;;9.80;;
60975;SDS011;46849;48.154;17.042;2022-10-16T17:46:56;14.65;;;9.45;;
60975;SDS011;46849;48.154;17.042;2022-10-16T17:49:41;16.45;;;9.95;;
60975;SDS011;46849;48.154;17.042;2022-10-16T17:52:27;17.48;;;9.48;;
60975;SDS011;46849;48.154;17.042;2022-10-16T17:55:11;18.15;;;9.93;;